createdAt,value
2018-05-27T00:00:50.942Z,28.80
2018-05-27T00:03:19.219Z,34.13
2018-05-27T00:05:47.414Z,48.73
2018-05-27T00:08:15.724Z,59.97
2018-05-27T00:10:43.987Z,50.97
2018-05-27T00:13:12.186Z,41.93
2018-05-27T00:15:40.697Z,40.00
2018-05-27T00:18:08.990Z,26.20
2018-05-27T00:20:37.262Z,26.70
2018-05-27T00:23:05.534Z,28.10
2018-05-27T00:25:33.739Z,28.57
2018-05-27T00:28:02.007Z,35.87
2018-05-27T00:30:30.190Z,58.43
2018-05-27T00:32:58.406Z,42.77
2018-05-27T00:35:26.567Z,48.27
2018-05-27T00:37:54.758Z,75.40
2018-05-27T00:40:23.043Z,63.77
2018-05-27T00:42:51.228Z,54.33
2018-05-27T00:45:19.422Z,51.33
2018-05-27T00:47:47.704Z,39.60
2018-05-27T00:50:15.903Z,36.07
2018-05-27T00:52:44.175Z,31.50
2018-05-27T00:55:12.378Z,34.80
2018-05-27T00:57:40.665Z,28.17
2018-05-27T01:00:08.863Z,25.50
2018-05-27T01:02:37.142Z,32.00
2018-05-27T01:05:05.418Z,31.83
2018-05-27T01:07:33.908Z,75.73
2018-05-27T01:10:02.103Z,102.73
2018-05-27T01:12:30.306Z,134.10
2018-05-27T01:14:58.582Z,173.27
2018-05-27T01:17:26.858Z,125.30
2018-05-27T01:19:55.046Z,96.37
2018-05-27T01:22:23.238Z,88.30
2018-05-27T01:24:51.415Z,65.40
2018-05-27T01:27:19.614Z,71.03
2018-05-27T01:29:47.898Z,52.07
2018-05-27T01:32:16.093Z,41.23
2018-05-27T01:34:44.278Z,39.50
2018-05-27T01:37:12.554Z,35.60
2018-05-27T01:39:40.768Z,31.50
2018-05-27T01:42:09.034Z,43.90
2018-05-27T01:44:37.303Z,32.23
2018-05-27T01:47:05.487Z,43.83
2018-05-27T01:49:33.690Z,43.60
2018-05-27T01:52:01.883Z,31.30
2018-05-27T01:54:30.074Z,27.07
2018-05-27T01:56:58.350Z,32.63
2018-05-27T01:59:26.551Z,35.27
2018-05-27T02:01:54.835Z,44.17
2018-05-27T02:04:23.134Z,49.73
2018-05-27T02:06:51.406Z,61.27
2018-05-27T02:09:19.599Z,55.03
2018-05-27T02:11:47.799Z,58.87
2018-05-27T02:14:16.083Z,80.23
2018-05-27T02:16:44.283Z,49.90
2018-05-27T02:19:12.559Z,41.93
2018-05-27T02:21:40.839Z,35.93
2018-05-27T02:24:09.039Z,37.10
2018-05-27T02:26:37.323Z,62.43
2018-05-27T02:29:05.611Z,53.00
2018-05-27T02:31:33.887Z,34.50
2018-05-27T02:34:02.083Z,37.20
2018-05-27T02:36:30.372Z,34.17
2018-05-27T02:38:58.546Z,39.60
2018-05-27T02:41:26.759Z,31.60
2018-05-27T02:43:55.036Z,35.50
2018-05-27T02:46:23.211Z,39.50
2018-05-27T02:48:51.417Z,77.07
2018-05-27T02:51:20.536Z,39.60
2018-05-27T02:53:48.812Z,53.83
2018-05-27T02:56:17.109Z,60.10
2018-05-27T02:58:45.282Z,34.03
2018-05-27T03:01:13.588Z,27.73
2018-05-27T03:03:41.842Z,30.67
2018-05-27T03:06:10.072Z,32.37
2018-05-27T03:08:38.328Z,27.80
2018-05-27T03:11:06.524Z,29.40
2018-05-27T03:13:34.824Z,32.00
2018-05-27T03:16:03.102Z,22.97
2018-05-27T03:18:31.382Z,24.67
2018-05-27T03:20:59.558Z,27.07
2018-05-27T03:23:27.747Z,24.63
2018-05-27T03:25:55.942Z,23.80
2018-05-27T03:28:24.116Z,23.10
2018-05-27T03:30:52.318Z,25.57
2018-05-27T03:33:20.591Z,22.53
2018-05-27T03:35:48.798Z,28.87
2018-05-27T03:38:17.091Z,26.37
2018-05-27T03:40:45.411Z,27.03
2018-05-27T03:43:13.670Z,26.73
2018-05-27T03:45:41.935Z,26.93
2018-05-27T03:48:10.122Z,28.97
2018-05-27T03:50:38.314Z,33.93
2018-05-27T03:53:06.503Z,22.60
2018-05-27T03:55:34.903Z,39.07
2018-05-27T03:58:03.170Z,38.23
2018-05-27T04:00:31.386Z,35.90
2018-05-27T04:02:59.662Z,40.87
2018-05-27T04:06:36.747Z,39.27
2018-05-27T04:09:05.595Z,25.97
2018-05-27T04:11:33.842Z,34.20
2018-05-27T04:14:02.055Z,32.47
2018-05-27T04:16:30.329Z,26.93
2018-05-27T04:18:58.514Z,24.13
2018-05-27T04:21:26.703Z,24.73
2018-05-27T04:23:54.878Z,31.17
2018-05-27T04:26:23.083Z,29.43
2018-05-27T04:28:51.362Z,26.77
2018-05-27T04:31:19.546Z,20.80
2018-05-27T04:33:47.739Z,23.37
2018-05-27T04:36:15.919Z,23.70
2018-05-27T04:38:44.126Z,26.20
2018-05-27T04:41:12.393Z,26.23
2018-05-27T04:43:40.583Z,28.90
2018-05-27T04:46:08.781Z,25.83
2018-05-27T04:48:37.066Z,28.57
2018-05-27T04:51:05.358Z,40.37
2018-05-27T04:53:33.631Z,37.67
2018-05-27T04:56:01.819Z,46.33
2018-05-27T04:58:30.066Z,49.90
2018-05-27T05:00:58.302Z,63.60
2018-05-27T05:03:26.594Z,77.80
2018-05-27T05:05:54.879Z,69.07
2018-05-27T05:08:23.154Z,84.50
2018-05-27T05:10:51.363Z,62.57
2018-05-27T05:13:19.658Z,54.23
2018-05-27T05:15:47.938Z,70.47
2018-05-27T05:18:16.225Z,67.33
2018-05-27T05:20:44.501Z,59.37
2018-05-27T05:23:12.690Z,43.40
2018-05-27T05:25:40.881Z,35.87
2018-05-27T05:28:09.078Z,29.33
2018-05-27T05:30:37.345Z,33.00
2018-05-27T05:33:05.538Z,28.60
2018-05-27T05:35:33.711Z,25.37
2018-05-27T05:38:01.916Z,22.43
2018-05-27T05:40:30.119Z,22.30
2018-05-27T05:42:58.387Z,26.47
2018-05-27T05:45:26.575Z,22.70
2018-05-27T05:47:54.894Z,24.93
2018-05-27T05:50:23.151Z,30.83
2018-05-27T05:52:51.351Z,20.67
2018-05-27T05:55:19.630Z,27.47
2018-05-27T05:57:47.818Z,30.77
2018-05-27T06:00:16.010Z,25.63
2018-05-27T06:02:44.286Z,21.00
2018-05-27T06:05:12.490Z,21.33
2018-05-27T06:07:40.759Z,22.67
2018-05-27T06:10:08.956Z,25.27
2018-05-27T06:12:37.147Z,24.60
2018-05-27T06:15:05.595Z,21.03
2018-05-27T06:17:34.798Z,21.90
2018-05-27T06:20:03.035Z,27.47
2018-05-27T06:22:31.337Z,23.33
2018-05-27T06:24:59.624Z,27.90
2018-05-27T06:27:27.902Z,24.57
2018-05-27T06:29:56.195Z,29.80
2018-05-27T06:32:24.466Z,20.57
2018-05-27T06:34:52.672Z,25.00
2018-05-27T06:37:20.963Z,20.20
2018-05-27T06:39:49.238Z,21.43
2018-05-27T06:42:17.630Z,19.50
2018-05-27T06:44:45.814Z,23.47
2018-05-27T06:47:14.047Z,32.20
2018-05-27T06:49:42.315Z,27.50
2018-05-27T06:52:10.590Z,19.67
2018-05-27T06:54:38.818Z,18.67
2018-05-27T06:57:07.057Z,25.37
2018-05-27T06:59:35.348Z,17.40
2018-05-27T07:02:03.529Z,19.17
2018-05-27T07:04:31.830Z,22.07
2018-05-27T07:07:00.015Z,17.90
2018-05-27T07:09:28.290Z,21.90
2018-05-27T07:11:56.478Z,20.37
2018-05-27T07:14:24.682Z,15.43
2018-05-27T07:16:52.954Z,15.80
2018-05-27T07:19:21.164Z,17.77
2018-05-27T07:21:49.422Z,18.03
2018-05-27T07:24:17.614Z,19.50
2018-05-27T07:26:45.827Z,17.23
2018-05-27T07:29:14.099Z,13.70
2018-05-27T07:31:42.291Z,16.30
2018-05-27T07:34:10.572Z,15.63
2018-05-27T07:36:38.760Z,14.60
2018-05-27T07:39:06.963Z,14.00
2018-05-27T07:41:35.482Z,12.13
2018-05-27T07:44:03.723Z,15.43
2018-05-27T07:46:31.975Z,12.83
2018-05-27T07:49:00.195Z,16.50
2018-05-27T07:51:28.480Z,17.63
2018-05-27T07:53:56.674Z,23.53
2018-05-27T07:56:25.503Z,13.47
2018-05-27T07:58:53.774Z,13.80
2018-05-27T08:01:22.515Z,16.40
2018-05-27T08:03:50.767Z,16.23
2018-05-27T08:06:19.147Z,13.57
2018-05-27T08:08:47.339Z,13.63
2018-05-27T08:11:15.614Z,13.60
2018-05-27T08:13:43.819Z,14.27
2018-05-27T08:16:12.099Z,15.30
2018-05-27T08:18:40.389Z,18.33
2018-05-27T08:21:08.574Z,15.57
2018-05-27T08:23:37.063Z,14.50
2018-05-27T08:26:05.294Z,14.60
2018-05-27T08:28:33.558Z,11.40
2018-05-27T08:31:01.871Z,12.27
2018-05-27T08:33:30.054Z,14.17
2018-05-27T08:35:58.339Z,16.83
2018-05-27T08:38:26.595Z,12.93
2018-05-27T08:40:54.876Z,12.07
2018-05-27T08:43:23.096Z,11.63
2018-05-27T08:45:51.259Z,16.30
2018-05-27T08:48:19.514Z,11.80
2018-05-27T08:50:47.758Z,12.70
2018-05-27T08:53:16.031Z,15.20
2018-05-27T08:55:45.232Z,13.97
2018-05-27T08:58:14.843Z,16.90
2018-05-27T09:00:43.635Z,14.73
2018-05-27T09:03:12.051Z,14.67
2018-05-27T09:05:40.470Z,14.60
2018-05-27T09:08:08.975Z,14.30
2018-05-27T09:10:37.479Z,12.20
2018-05-27T09:13:06.259Z,14.47
2018-05-27T09:15:35.414Z,13.47
2018-05-27T09:18:04.261Z,16.80
2018-05-27T09:20:32.530Z,13.60
2018-05-27T09:23:00.735Z,15.73
2018-05-27T09:25:28.994Z,13.80
2018-05-27T09:27:57.238Z,14.87
2018-05-27T09:30:25.471Z,13.83
2018-05-27T09:32:53.654Z,13.70
2018-05-27T09:35:21.867Z,13.30
2018-05-27T09:37:50.146Z,11.03
2018-05-27T09:40:18.448Z,13.47
2018-05-27T09:42:47.490Z,15.17
2018-05-27T09:45:16.144Z,12.53
2018-05-27T09:47:45.277Z,13.80
2018-05-27T09:50:13.854Z,17.47
2018-05-27T09:52:42.138Z,15.77
2018-05-27T09:55:10.467Z,13.57
2018-05-27T09:57:38.731Z,11.90
2018-05-27T10:00:07.827Z,12.80
2018-05-27T10:02:36.130Z,16.97
2018-05-27T10:05:04.436Z,16.17
2018-05-27T10:07:34.069Z,10.73
2018-05-27T10:10:02.342Z,11.00
2018-05-27T10:12:30.605Z,9.90
2018-05-27T10:16:23.346Z,11.27
2018-05-27T10:18:51.581Z,10.07
2018-05-27T10:21:19.870Z,10.40
2018-05-27T10:23:48.139Z,10.10
2018-05-27T10:26:16.340Z,9.10
2018-05-27T10:28:44.603Z,11.83
2018-05-27T10:31:13.098Z,9.30
2018-05-27T10:33:41.335Z,14.37
2018-05-27T10:36:09.582Z,9.90
2018-05-27T10:38:37.776Z,11.20
2018-05-27T10:41:06.042Z,9.47
2018-05-27T10:43:34.242Z,7.83
2018-05-27T10:46:02.599Z,9.60
2018-05-27T10:48:31.206Z,10.10
2018-05-27T10:50:59.410Z,8.67
2018-05-27T10:53:27.594Z,9.53
2018-05-27T10:55:55.878Z,8.17
2018-05-27T10:58:24.074Z,8.57
2018-05-27T11:00:52.250Z,9.97
2018-05-27T11:03:20.448Z,9.37
2018-05-27T11:05:48.704Z,8.07
2018-05-27T11:08:17.032Z,8.30
2018-05-27T11:10:45.210Z,8.50
2018-05-27T11:13:13.392Z,8.60
2018-05-27T11:15:41.582Z,8.60
2018-05-27T11:18:09.767Z,16.43
2018-05-27T11:20:37.984Z,8.00
2018-05-27T11:23:06.140Z,8.50
2018-05-27T11:25:34.327Z,8.83
2018-05-27T11:28:02.526Z,13.30
2018-05-27T11:30:30.798Z,11.20
2018-05-27T11:32:58.998Z,8.93
2018-05-27T11:35:27.202Z,13.30
2018-05-27T11:37:55.458Z,12.33
2018-05-27T11:40:24.137Z,10.40
2018-05-27T11:42:52.342Z,8.27
2018-05-27T11:45:21.099Z,8.97
2018-05-27T11:47:49.326Z,8.27
2018-05-27T11:50:17.516Z,9.33
2018-05-27T11:52:45.714Z,9.10
2018-05-27T11:55:13.939Z,10.57
2018-05-27T11:57:42.209Z,14.53
2018-05-27T12:00:10.420Z,9.17
2018-05-27T12:02:38.714Z,9.10
2018-05-27T12:05:07.011Z,14.17
2018-05-27T12:07:35.251Z,8.83
2018-05-27T12:10:03.515Z,12.63
2018-05-27T12:12:31.731Z,9.60
2018-05-27T12:15:00.006Z,10.47
2018-05-27T12:17:28.199Z,14.27
2018-05-27T12:19:56.466Z,10.33
2018-05-27T12:22:24.686Z,11.23
2018-05-27T12:24:52.999Z,10.10
2018-05-27T12:27:22.443Z,9.50
2018-05-27T12:29:50.774Z,10.90
2018-05-27T12:32:18.964Z,11.07
2018-05-27T12:34:47.259Z,10.60
2018-05-27T12:37:15.514Z,10.73
2018-05-27T12:39:43.706Z,10.00
2018-05-27T12:42:11.902Z,9.80
2018-05-27T12:44:41.103Z,11.53
2018-05-27T12:47:09.378Z,10.20
2018-05-27T12:49:38.367Z,10.47
2018-05-27T12:52:08.964Z,9.80
2018-05-27T12:54:37.510Z,9.77
2018-05-27T12:57:05.760Z,15.53
2018-05-27T12:59:34.046Z,9.50
2018-05-27T13:02:02.338Z,14.93
2018-05-27T13:04:30.542Z,12.20
2018-05-27T13:06:58.818Z,11.03
2018-05-27T13:09:27.070Z,13.87
2018-05-27T13:11:55.274Z,11.43
2018-05-27T13:14:23.450Z,11.77
2018-05-27T13:16:51.924Z,13.20
2018-05-27T13:19:19.926Z,17.73
2018-05-27T13:21:48.107Z,10.80
2018-05-27T13:24:16.310Z,13.13
2018-05-27T13:26:44.483Z,10.90
2018-05-27T13:29:12.678Z,14.07
2018-05-27T13:31:40.875Z,10.60
2018-05-27T13:34:09.147Z,11.57
2018-05-27T13:36:37.347Z,10.77
2018-05-27T13:39:06.163Z,10.47
2018-05-27T13:41:34.436Z,11.87
2018-05-27T13:44:02.624Z,11.13
2018-05-27T13:46:30.898Z,15.97
2018-05-27T13:48:59.103Z,10.90
2018-05-27T13:51:27.274Z,20.83
2018-05-27T13:53:55.470Z,12.00
2018-05-27T13:56:23.751Z,16.70
2018-05-27T13:58:51.940Z,13.87
2018-05-27T14:01:20.132Z,34.13
2018-05-27T14:03:48.307Z,28.47
2018-05-27T14:06:16.503Z,21.57
2018-05-27T14:08:44.678Z,20.27
2018-05-27T14:11:12.867Z,18.30
2018-05-27T14:13:41.070Z,19.27
2018-05-27T14:16:09.243Z,16.77
2018-05-27T14:18:37.447Z,16.90
2018-05-27T14:21:05.718Z,14.73
2018-05-27T14:23:33.999Z,25.33
2018-05-27T14:26:02.260Z,16.87
2018-05-27T14:28:30.419Z,36.93
2018-05-27T14:30:58.704Z,14.70
2018-05-27T14:33:26.867Z,20.90
2018-05-27T14:35:55.131Z,19.90
2018-05-27T14:38:23.338Z,17.20
2018-05-27T14:40:51.522Z,14.17
2018-05-27T14:43:20.808Z,17.20
2018-05-27T14:45:49.066Z,19.40
2018-05-27T14:48:17.247Z,15.70
2018-05-27T14:50:45.495Z,21.67
2018-05-27T14:53:13.682Z,18.83
2018-05-27T14:55:41.875Z,18.97
2018-05-27T14:58:10.151Z,15.03
2018-05-27T15:00:38.341Z,15.70
2018-05-27T15:03:06.527Z,14.20
2018-05-27T15:05:34.742Z,17.43
2018-05-27T15:08:03.027Z,18.80
2018-05-27T15:10:31.289Z,16.63
2018-05-27T15:12:59.484Z,31.53
2018-05-27T15:15:27.821Z,15.47
2018-05-27T15:17:55.959Z,20.73
2018-05-27T15:20:24.163Z,17.17
2018-05-27T15:22:52.343Z,13.23
2018-05-27T15:25:20.626Z,27.90
2018-05-27T15:27:48.802Z,14.90
2018-05-27T15:30:16.980Z,12.67
2018-05-27T15:32:45.191Z,15.70
2018-05-27T15:35:13.371Z,13.17
2018-05-27T15:37:41.642Z,15.93
2018-05-27T15:40:09.828Z,14.97
2018-05-27T15:42:38.023Z,16.90
2018-05-27T15:45:06.213Z,12.40
2018-05-27T15:47:34.390Z,13.23
2018-05-27T15:50:02.583Z,14.97
2018-05-27T15:52:30.862Z,11.33
2018-05-27T15:54:59.055Z,22.63
2018-05-27T15:57:27.286Z,12.37
2018-05-27T15:59:55.521Z,12.10
2018-05-27T16:02:23.726Z,10.83
2018-05-27T16:04:51.897Z,13.97
2018-05-27T16:07:20.078Z,13.40
2018-05-27T16:09:48.278Z,10.63
2018-05-27T16:12:16.464Z,12.87
2018-05-27T16:14:44.626Z,12.07
2018-05-27T16:17:12.839Z,14.97
2018-05-27T16:19:41.830Z,11.00
2018-05-27T16:22:10.037Z,11.37
2018-05-27T16:24:38.307Z,9.50
2018-05-27T16:27:07.482Z,9.20
2018-05-27T16:29:35.654Z,9.17
2018-05-27T16:32:03.895Z,9.57
2018-05-27T16:34:32.096Z,10.30
2018-05-27T16:37:00.262Z,11.27
2018-05-27T16:39:28.442Z,9.60
2018-05-27T16:41:56.619Z,9.80
2018-05-27T16:44:24.823Z,13.37
2018-05-27T16:46:52.995Z,19.97
2018-05-27T16:49:21.206Z,10.17
2018-05-27T16:51:49.398Z,14.13
2018-05-27T16:54:17.558Z,11.67
2018-05-27T16:56:45.726Z,12.20
2018-05-27T16:59:13.923Z,10.20
2018-05-27T17:01:42.114Z,10.90
2018-05-27T17:04:10.335Z,11.13
2018-05-27T17:06:38.510Z,9.43
2018-05-27T17:09:06.691Z,17.23
2018-05-27T17:11:34.885Z,12.93
2018-05-27T17:14:03.059Z,10.33
2018-05-27T17:16:31.263Z,18.47
2018-05-27T17:19:00.475Z,14.87
2018-05-27T17:21:28.651Z,15.67
2018-05-27T17:23:56.862Z,13.43
2018-05-27T17:26:25.114Z,10.00
2018-05-27T17:28:53.326Z,13.20
2018-05-27T17:31:21.595Z,10.87
2018-05-27T17:33:49.795Z,11.00
2018-05-27T17:36:18.466Z,10.63
2018-05-27T17:41:24.860Z,10.07
2018-05-27T17:43:53.114Z,17.30
2018-05-27T17:46:21.702Z,15.40
2018-05-27T17:48:50.326Z,12.07
2018-05-27T17:51:18.742Z,13.30
2018-05-27T17:53:47.043Z,14.70
2018-05-27T17:56:15.258Z,11.97
2018-05-27T17:58:43.439Z,12.73
2018-05-27T18:01:11.630Z,12.07
2018-05-27T18:03:39.871Z,12.13
2018-05-27T18:06:08.115Z,13.13
2018-05-27T18:08:36.430Z,13.03
2018-05-27T18:11:04.736Z,24.03
2018-05-27T18:13:32.974Z,16.17
2018-05-27T18:16:01.259Z,17.83
2018-05-27T18:18:29.462Z,24.30
2018-05-27T18:20:57.752Z,18.40
2018-05-27T18:23:26.028Z,16.83
2018-05-27T18:25:54.270Z,17.17
2018-05-27T18:28:22.542Z,15.83
2018-05-27T18:30:50.826Z,17.07
2018-05-27T18:33:19.080Z,26.90
2018-05-27T18:35:47.367Z,13.87
2018-05-27T18:38:15.679Z,14.13
2018-05-27T18:40:43.943Z,17.37
2018-05-27T18:43:12.196Z,16.23
2018-05-27T18:45:40.427Z,24.13
2018-05-27T18:48:08.724Z,18.47
2018-05-27T18:50:36.998Z,18.47
2018-05-27T18:53:05.191Z,19.40
2018-05-27T18:55:33.475Z,33.13
2018-05-27T18:58:01.687Z,25.57
2018-05-27T19:00:29.955Z,25.13
2018-05-27T19:02:58.262Z,26.70
2018-05-27T19:05:26.518Z,17.33
2018-05-27T19:07:54.707Z,26.03
2018-05-27T19:10:22.981Z,54.27
2018-05-27T19:12:51.242Z,23.97
2018-05-27T19:15:19.495Z,24.87
2018-05-27T19:17:47.675Z,24.97
2018-05-27T19:20:15.951Z,22.67
2018-05-27T19:22:44.139Z,19.17
2018-05-27T19:25:12.486Z,17.33
2018-05-27T19:27:40.739Z,27.00
2018-05-27T19:30:09.003Z,19.70
2018-05-27T19:32:37.187Z,18.43
2018-05-27T19:35:05.386Z,20.93
2018-05-27T19:37:33.674Z,21.97
2018-05-27T19:40:01.988Z,23.93
2018-05-27T19:42:30.263Z,26.53
2018-05-27T19:44:58.570Z,21.87
2018-05-27T19:47:26.823Z,28.77
2018-05-27T19:49:55.002Z,23.43
2018-05-27T19:52:23.319Z,21.20
2018-05-27T19:54:53.588Z,19.43
2018-05-27T19:57:21.846Z,16.60
2018-05-27T19:59:50.111Z,19.53
2018-05-27T20:02:18.290Z,19.77
2018-05-27T20:04:46.518Z,26.87
2018-05-27T20:07:14.840Z,18.43
2018-05-27T20:09:43.090Z,26.23
2018-05-27T20:12:11.358Z,17.73
2018-05-27T20:14:40.137Z,27.03
2018-05-27T20:17:08.361Z,34.47
2018-05-27T20:19:36.667Z,28.97
2018-05-27T20:22:04.950Z,29.03
2018-05-27T20:24:33.278Z,26.03
2018-05-27T20:27:01.503Z,21.73
2018-05-27T20:29:29.832Z,18.60
2018-05-27T20:31:58.082Z,20.73
2018-05-27T20:34:26.354Z,17.50
2018-05-27T20:36:54.551Z,22.57
2018-05-27T20:39:22.880Z,20.03
2018-05-27T20:41:51.152Z,19.90
2018-05-27T20:44:19.406Z,21.93
2018-05-27T20:46:47.812Z,16.40
2018-05-27T20:49:16.187Z,19.43
2018-05-27T20:51:44.543Z,23.50
2018-05-27T20:54:12.798Z,15.73
2018-05-27T20:56:41.105Z,23.43
2018-05-27T20:59:09.243Z,25.47
2018-05-27T21:01:37.439Z,20.10
2018-05-27T21:04:05.783Z,18.93
2018-05-27T21:06:33.923Z,24.13
2018-05-27T21:09:02.206Z,17.50
2018-05-27T21:11:30.483Z,19.37
2018-05-27T21:13:58.691Z,17.30
2018-05-27T21:16:26.959Z,16.60
2018-05-27T21:18:55.575Z,19.33
2018-05-27T21:21:23.846Z,17.20
2018-05-27T21:23:52.034Z,16.70
2018-05-27T21:26:20.218Z,21.87
2018-05-27T21:28:48.418Z,18.43
2018-05-27T21:31:16.707Z,18.23
2018-05-27T21:33:44.891Z,22.93
2018-05-27T21:36:13.084Z,18.70
2018-05-27T21:38:41.759Z,16.70
2018-05-27T21:41:09.965Z,16.80
2018-05-27T21:43:38.155Z,19.40
2018-05-27T21:46:06.484Z,16.70
2018-05-27T21:48:34.652Z,22.30
2018-05-27T21:51:02.922Z,18.57
2018-05-27T21:53:31.203Z,21.03
2018-05-27T21:55:59.427Z,21.33
2018-05-27T21:58:27.675Z,23.10
2018-05-27T22:00:55.887Z,17.97
2018-05-27T22:03:24.175Z,18.90
2018-05-27T22:05:52.434Z,26.93
2018-05-27T22:08:20.646Z,20.03
2018-05-27T22:10:48.906Z,20.77
2018-05-27T22:13:17.098Z,28.03
2018-05-27T22:15:45.295Z,22.50
2018-05-27T22:18:13.580Z,18.37
2018-05-27T22:20:41.779Z,22.03
2018-05-27T22:23:10.063Z,20.90
2018-05-27T22:25:38.342Z,26.33
2018-05-27T22:28:06.530Z,22.83
2018-05-27T22:30:34.814Z,19.07
2018-05-27T22:33:03.029Z,25.03
2018-05-27T22:35:31.290Z,22.37
2018-05-27T22:37:59.482Z,24.67
2018-05-27T22:40:27.675Z,23.67
2018-05-27T22:42:55.955Z,37.67
2018-05-27T22:45:24.186Z,23.47
2018-05-27T22:47:52.507Z,23.07
2018-05-27T22:50:20.731Z,22.83
2018-05-27T22:52:49.100Z,23.57
2018-05-27T22:55:17.290Z,21.73
2018-05-27T22:57:45.506Z,22.43
2018-05-27T23:00:13.824Z,20.87
2018-05-27T23:02:42.054Z,21.30
2018-05-27T23:05:10.246Z,23.20
2018-05-27T23:07:38.530Z,24.80
2018-05-27T23:10:06.748Z,22.40
2018-05-27T23:12:35.101Z,23.33
2018-05-27T23:15:03.302Z,28.50
2018-05-27T23:17:31.582Z,23.70
2018-05-27T23:19:59.771Z,20.13
2018-05-27T23:22:27.987Z,22.90
2018-05-27T23:24:56.268Z,21.07
2018-05-27T23:27:24.555Z,24.40
2018-05-27T23:29:52.925Z,24.93
2018-05-27T23:32:21.127Z,22.07
2018-05-27T23:34:49.394Z,35.20
2018-05-27T23:37:17.594Z,23.23
2018-05-27T23:39:45.914Z,22.70
2018-05-27T23:42:14.246Z,28.23
2018-05-27T23:44:42.475Z,25.50
2018-05-27T23:47:10.741Z,22.90
2018-05-27T23:49:38.931Z,32.53
2018-05-27T23:52:07.130Z,27.87
2018-05-27T23:54:35.407Z,25.37
2018-05-27T23:57:03.639Z,25.53
2018-05-27T23:59:31.887Z,24.60
